Wetterstation Vordersexau
Wetterdaten: Woche 29.12.14 - 04.01.15 (KW1)
Datum Zeit Temp. A. Feuchte A. Luftdruck Regen Wind Richtung Taupunkt Windchill Windben
29.12.2014 00:00 -9,8 C 85 % 1003,2 hPa 0,0 l/m 0,0 km/h O-SO -11,8 C -9,8 C 0,0 km/h
29.12.2014 01:00 -10,2 C 86 % 1003,3 hPa 0,0 l/m 0,0 km/h O-SO -12,1 C -10,2 C 0,0 km/h
29.12.2014 02:00 -10,1 C 87 % 1004,0 hPa 0,0 l/m 0,0 km/h O-SO -11,8 C -10,1 C 0,0 km/h
29.12.2014 03:00 -9,4 C 87 % 1004,1 hPa 0,0 l/m 7,6 km/h SO -11,2 C -11,0 C 7,6 km/h
29.12.2014 04:00 -10,5 C 86 % 1004,8 hPa 0,0 l/m 0,0 km/h SO -12,4 C -10,5 C 0,0 km/h
29.12.2014 05:00 -10,7 C 87 % 1004,9 hPa 0,0 l/m 0,0 km/h SO -12,4 C -10,7 C 0,0 km/h
29.12.2014 06:00 -10,7 C 87 % 1004,6 hPa 0,0 l/m 0,0 km/h O-SO -12,4 C -10,7 C 0,0 km/h
29.12.2014 07:00 -9,6 C 87 % 1004,7 hPa 0,0 l/m 0,0 km/h SO -11,3 C -9,6 C 0,0 km/h
29.12.2014 08:00 -7,4 C 87 % 1004,5 hPa 0,0 l/m 0,0 km/h SO -9,2 C -7,4 C 0,0 km/h
29.12.2014 09:00 -6,2 C 88 % 1005,1 hPa 0,0 l/m 0,0 km/h SO -7,9 C -6,2 C 0,0 km/h
29.12.2014 10:00 -5,2 C 87 % 1004,5 hPa 0,0 l/m 0,0 km/h O-SO -7,0 C -5,2 C 0,0 km/h
29.12.2014 11:00 -4,4 C 87 % 1004,4 hPa 0,0 l/m 0,0 km/h S -6,2 C -4,4 C 0,0 km/h
29.12.2014 12:00 -4,2 C 87 % 1003,8 hPa 0,0 l/m 0,0 km/h S-SO -6,0 C -4,2 C 0,0 km/h
29.12.2014 13:00 -4,0 C 87 % 1003,7 hPa 0,0 l/m 0,0 km/h S-SO -5,8 C -4,0 C 0,0 km/h
29.12.2014 14:00 -3,8 C 87 % 1003,4 hPa 0,0 l/m 0,0 km/h S-SO -5,6 C -3,8 C 0,0 km/h
29.12.2014 15:00 -3,8 C 87 % 1003,9 hPa 0,0 l/m 0,0 km/h S-SO -5,6 C -3,8 C 0,0 km/h
29.12.2014 16:00 -4,1 C 87 % 1004,0 hPa 0,0 l/m 0,0 km/h S-SO -5,9 C -4,1 C 0,0 km/h
29.12.2014 17:00 -3,9 C 87 % 1004,4 hPa 0,0 l/m 0,0 km/h S-SO -5,7 C -3,9 C 0,0 km/h
29.12.2014 18:00 -3,8 C 88 % 1005,0 hPa 0,0 l/m 0,0 km/h O-NO -5,5 C -3,8 C 0,0 km/h
29.12.2014 19:00 -3,7 C 88 % 1005,3 hPa 0,0 l/m 0,0 km/h O -5,4 C -3,7 C 0,0 km/h
29.12.2014 20:00 -3,6 C 88 % 1006,0 hPa 0,0 l/m 0,0 km/h O -5,3 C -3,6 C 0,0 km/h
29.12.2014 21:00 -3,4 C 88 % 1006,7 hPa 0,0 l/m 0,0 km/h O-NO -5,1 C -3,4 C 0,0 km/h
29.12.2014 22:00 -3,2 C 88 % 1007,0 hPa 0,0 l/m 0,0 km/h O -4,9 C -3,2 C 0,0 km/h
29.12.2014 23:00 -3,1 C 88 % 1007,6 hPa 0,0 l/m 0,0 km/h O -4,8 C -3,1 C 0,0 km/h
30.12.2014 00:00 -3,1 C 88 % 1007,2 hPa 0,0 l/m 0,0 km/h O-NO -4,8 C -3,1 C 0,0 km/h
30.12.2014 01:00 -3,0 C 88 % 1007,5 hPa 0,0 l/m 0,0 km/h O-NO -4,7 C -3,0 C 0,0 km/h
30.12.2014 02:00 -2,9 C 88 % 1007,9 hPa 0,0 l/m 0,0 km/h O -4,6 C -2,9 C 0,0 km/h
30.12.2014 03:00 -2,9 C 88 % 1008,1 hPa 0,0 l/m 0,0 km/h O -4,6 C -2,9 C 0,0 km/h
30.12.2014 04:00 -2,7 C 88 % 1007,7 hPa 0,0 l/m 0,0 km/h O-NO -4,4 C -2,7 C 0,0 km/h
30.12.2014 05:00 -2,7 C 88 % 1007,6 hPa 0,0 l/m 0,0 km/h O-SO -4,4 C -2,7 C 0,0 km/h
30.12.2014 06:00 -2,8 C 88 % 1007,6 hPa 0,0 l/m 0,0 km/h O-SO -4,5 C -2,8 C 0,0 km/h
30.12.2014 07:00 -2,7 C 88 % 1007,7 hPa 0,0 l/m 0,0 km/h O-SO -4,4 C -2,7 C 0,0 km/h
30.12.2014 08:00 -2,5 C 88 % 1007,4 hPa 0,0 l/m 0,0 km/h O-SO -4,2 C -2,5 C 0,0 km/h
30.12.2014 09:00 -1,5 C 87 % 1007,6 hPa 0,0 l/m 0,0 km/h O-SO -3,4 C -1,5 C 0,0 km/h
30.12.2014 10:00 -0,1 C 87 % 1007,6 hPa 0,0 l/m 0,0 km/h O-SO -2,0 C -0,1 C 0,0 km/h
30.12.2014 11:00 0,4 C 87 % 1007,2 hPa 0,0 l/m 0,0 km/h O-SO -1,5 C 0,4 C 0,0 km/h
30.12.2014 12:00 0,7 C 87 % 1006,8 hPa 0,0 l/m 0,0 km/h O-SO -1,2 C 0,7 C 0,0 km/h
30.12.2014 13:00 0,3 C 87 % 1006,2 hPa 0,0 l/m 0,0 km/h O-SO -1,6 C 0,3 C 0,0 km/h
30.12.2014 14:00 -0,2 C 87 % 1006,2 hPa 0,0 l/m 0,0 km/h O-SO -2,1 C -0,2 C 0,0 km/h
30.12.2014 15:00 -0,6 C 87 % 1006,1 hPa 0,0 l/m 0,0 km/h O-SO -2,5 C -0,6 C 0,0 km/h
30.12.2014 16:00 -0,8 C 88 % 1006,3 hPa 0,0 l/m 0,0 km/h O-SO -2,5 C -0,8 C 0,0 km/h
30.12.2014 17:00 -0,9 C 88 % 1006,2 hPa 0,0 l/m 0,0 km/h O-SO -2,6 C -0,9 C 0,0 km/h
30.12.2014 18:00 -1,0 C 88 % 1006,2 hPa 0,0 l/m 0,0 km/h O-SO -2,7 C -1,0 C 0,0 km/h
30.12.2014 19:00 -0,9 C 88 % 1006,3 hPa 0,0 l/m 0,0 km/h O-SO -2,6 C -0,9 C 0,0 km/h
30.12.2014 20:00 -0,9 C 88 % 1006,6 hPa 0,0 l/m 0,0 km/h O-SO -2,6 C -0,9 C 0,0 km/h
30.12.2014 21:00 -0,8 C 88 % 1006,0 hPa 0,0 l/m 0,0 km/h O-SO -2,5 C -0,8 C 0,0 km/h
30.12.2014 22:00 -0,9 C 88 % 1006,2 hPa 0,0 l/m 0,0 km/h O-SO -2,6 C -0,9 C 0,0 km/h
30.12.2014 23:00 -0,7 C 87 % 1006,1 hPa 0,0 l/m 0,0 km/h O-SO -2,6 C -0,7 C 0,0 km/h
31.12.2014 00:00 -0,8 C 88 % 1006,1 hPa 0,0 l/m 0,0 km/h O-SO -2,5 C -0,8 C 0,0 km/h
31.12.2014 01:00 -0,8 C 87 % 1005,7 hPa 0,0 l/m 0,0 km/h O-SO -2,7 C -0,8 C 0,0 km/h
31.12.2014 02:00 -0,8 C 87 % 1006,0 hPa 0,0 l/m 0,0 km/h O-SO -2,7 C -0,8 C 0,0 km/h
31.12.2014 03:00 -1,1 C 88 % 1005,9 hPa 0,0 l/m 0,0 km/h O-SO -2,8 C -1,1 C 0,0 km/h
31.12.2014 04:00 -1,6 C 87 % 1005,5 hPa 0,0 l/m 0,0 km/h O-SO -3,5 C -1,6 C 0,0 km/h
31.12.2014 05:00 -1,9 C 87 % 1005,2 hPa 0,0 l/m 0,0 km/h O-SO -3,8 C -1,9 C 0,0 km/h
31.12.2014 06:00 -1,8 C 87 % 1005,5 hPa 0,0 l/m 0,0 km/h O-SO -3,7 C -1,8 C 0,0 km/h
31.12.2014 07:00 -1,7 C 87 % 1006,0 hPa 0,0 l/m 0,0 km/h O-SO -3,6 C -1,7 C 0,0 km/h
31.12.2014 08:00 -1,5 C 87 % 1006,1 hPa 0,0 l/m 0,0 km/h O-SO -3,4 C -1,5 C 0,0 km/h
31.12.2014 09:00 -0,7 C 87 % 1006,3 hPa 0,0 l/m 0,0 km/h O-SO -2,6 C -0,7 C 0,0 km/h
31.12.2014 10:00 0,9 C 87 % 1006,1 hPa 0,0 l/m 0,0 km/h O -1,0 C 0,9 C 0,0 km/h
31.12.2014 11:00 1,4 C 87 % 1006,1 hPa 0,0 l/m 0,0 km/h O -0,5 C 1,4 C 0,0 km/h
31.12.2014 12:00 1,6 C 88 % 1005,5 hPa 0,0 l/m 0,0 km/h O -0,2 C 1,6 C 0,0 km/h
31.12.2014 13:00 1,8 C 87 % 1005,6 hPa 0,0 l/m 0,0 km/h O -0,1 C 1,8 C 0,0 km/h
31.12.2014 14:00 2,1 C 87 % 1005,4 hPa 0,0 l/m 0,0 km/h O 0,2 C 2,1 C 0,0 km/h
31.12.2014 15:00 1,3 C 87 % 1005,8 hPa 0,0 l/m 0,0 km/h O -0,6 C 1,3 C 0,0 km/h
31.12.2014 16:00 0,1 C 87 % 1005,9 hPa 0,0 l/m 0,0 km/h O -1,8 C 0,1 C 0,0 km/h
31.12.2014 17:00 0,1 C 87 % 1005,9 hPa 0,0 l/m 0,0 km/h O -1,8 C 0,1 C 0,0 km/h
31.12.2014 18:00 -0,2 C 87 % 1005,8 hPa 0,0 l/m 0,0 km/h O -2,1 C -0,2 C 0,0 km/h
31.12.2014 19:00 -0,1 C 87 % 1006,0 hPa 0,0 l/m 0,0 km/h O -2,0 C -0,1 C 0,0 km/h
31.12.2014 20:00 -0,5 C 87 % 1005,8 hPa 0,0 l/m 0,0 km/h O -2,4 C -0,5 C 0,0 km/h
31.12.2014 21:00 -1,2 C 88 % 1005,9 hPa 0,0 l/m 0,0 km/h O -2,9 C -1,2 C 0,0 km/h
31.12.2014 22:00 -3,6 C 88 % 1006,1 hPa 0,0 l/m 0,0 km/h O -5,3 C -3,6 C 0,0 km/h
31.12.2014 23:00 -3,7 C 88 % 1006,2 hPa 0,0 l/m 0,0 km/h O -5,4 C -3,7 C 0,0 km/h
01.01.2015 00:00 -5,1 C 88 % 1005,9 hPa 0,0 l/m 0,0 km/h O -6,8 C -5,1 C 0,0 km/h
01.01.2015 01:00 -5,4 C 88 % 1006,0 hPa 0,0 l/m 0,0 km/h O -7,1 C -5,4 C 0,0 km/h
01.01.2015 02:00 -4,7 C 88 % 1006,2 hPa 0,0 l/m 0,0 km/h O -6,4 C -4,7 C 0,0 km/h
01.01.2015 03:00 -4,9 C 88 % 1006,6 hPa 0,0 l/m 0,0 km/h O -6,6 C -4,9 C 0,0 km/h
01.01.2015 04:00 -4,9 C 88 % 1006,5 hPa 0,0 l/m 0,0 km/h O -6,6 C -4,9 C 0,0 km/h
01.01.2015 05:00 -5,1 C 87 % 1006,5 hPa 0,0 l/m 0,0 km/h O -6,9 C -5,1 C 0,0 km/h
01.01.2015 06:00 -4,9 C 87 % 1006,4 hPa 0,0 l/m 0,0 km/h O -6,7 C -4,9 C 0,0 km/h
01.01.2015 07:00 -5,0 C 87 % 1006,9 hPa 0,0 l/m 0,0 km/h O -6,8 C -5,0 C 0,0 km/h
01.01.2015 08:00 -5,6 C 88 % 1007,7 hPa 0,0 l/m 0,0 km/h O -7,3 C -5,6 C 0,0 km/h
01.01.2015 09:00 -3,4 C 86 % 1007,8 hPa 0,0 l/m 0,0 km/h O -5,4 C -3,4 C 0,0 km/h
01.01.2015 10:00 0,9 C 87 % 1008,7 hPa 0,0 l/m 0,0 km/h O -1,0 C 0,9 C 0,0 km/h
01.01.2015 11:00 -0,1 C 87 % 1007,7 hPa 0,0 l/m 0,0 km/h O -2,0 C -0,1 C 0,0 km/h
01.01.2015 12:00 1,5 C 83 % 1006,5 hPa 0,0 l/m 0,0 km/h O -1,1 C 1,5 C 0,0 km/h
01.01.2015 13:00 0,3 C 85 % 1007,1 hPa 0,0 l/m 0,0 km/h O -1,9 C 0,3 C 0,0 km/h
01.01.2015 14:00 0,3 C 86 % 1007,0 hPa 0,0 l/m 0,0 km/h O -1,8 C 0,3 C 0,0 km/h
01.01.2015 15:00 2,2 C 83 % 1006,1 hPa 0,0 l/m 0,0 km/h O -0,4 C 2,2 C 0,0 km/h
01.01.2015 16:00 -2,8 C 84 % 1006,4 hPa 0,0 l/m 0,0 km/h O -5,1 C -2,8 C 0,0 km/h
01.01.2015 17:00 -5,3 C 86 % 1006,5 hPa 0,0 l/m 0,0 km/h O -7,3 C -5,3 C 0,0 km/h
01.01.2015 18:00 -5,7 C 87 % 1006,7 hPa 0,0 l/m 0,0 km/h O -7,5 C -5,7 C 0,0 km/h
01.01.2015 19:00 -5,6 C 88 % 1006,9 hPa 0,0 l/m 0,0 km/h O -7,3 C -5,6 C 0,0 km/h
01.01.2015 20:00 -5,8 C 88 % 1006,6 hPa 0,0 l/m 0,0 km/h O -7,5 C -5,8 C 0,0 km/h
01.01.2015 21:00 -6,6 C 88 % 1006,4 hPa 0,0 l/m 0,0 km/h O -8,2 C -6,6 C 0,0 km/h
01.01.2015 22:00 -5,2 C 88 % 1006,0 hPa 0,0 l/m 0,0 km/h O -6,9 C -5,2 C 0,0 km/h
01.01.2015 23:00 -4,7 C 88 % 1006,4 hPa 0,0 l/m 0,0 km/h O -6,4 C -4,7 C 0,0 km/h
02.01.2015 00:00 -5,0 C 88 % 1005,3 hPa 0,0 l/m 0,0 km/h O -6,7 C -5,0 C 0,0 km/h
02.01.2015 01:00 -5,6 C 88 % 1005,1 hPa 0,0 l/m 0,0 km/h O -7,3 C -5,6 C 0,0 km/h
02.01.2015 02:00 -5,6 C 88 % 1004,9 hPa 0,0 l/m 0,0 km/h O -7,3 C -5,6 C 0,0 km/h
02.01.2015 03:00 -5,4 C 88 % 1004,6 hPa 0,0 l/m 0,0 km/h O -7,1 C -5,4 C 0,0 km/h
02.01.2015 04:00 -5,4 C 88 % 1004,0 hPa 0,0 l/m 0,0 km/h O -7,1 C -5,4 C 0,0 km/h
02.01.2015 05:00 -5,1 C 88 % 1003,6 hPa 0,0 l/m 0,0 km/h O -6,8 C -5,1 C 0,0 km/h
02.01.2015 06:00 -5,4 C 88 % 1004,1 hPa 0,0 l/m 0,0 km/h O -7,1 C -5,4 C 0,0 km/h
02.01.2015 07:00 -4,9 C 88 % 1004,2 hPa 0,0 l/m 0,0 km/h O -6,6 C -4,9 C 0,0 km/h
02.01.2015 08:00 -4,1 C 87 % 1004,3 hPa 0,0 l/m 0,0 km/h O -5,9 C -4,1 C 0,0 km/h
02.01.2015 09:00 -0,9 C 87 % 1004,6 hPa 0,0 l/m 0,0 km/h O -2,8 C -0,9 C 0,0 km/h
02.01.2015 10:00 0,4 C 86 % 1004,5 hPa 0,0 l/m 0,0 km/h NO -1,7 C 0,4 C 0,0 km/h
02.01.2015 11:00 1,2 C 85 % 1003,7 hPa 0,0 l/m 0,0 km/h S-SO -1,0 C 1,2 C 0,0 km/h
02.01.2015 12:00 1,9 C 85 % 1003,6 hPa 0,0 l/m 2,6 km/h SO -0,3 C 1,9 C 1,4 km/h
02.01.2015 13:00 2,9 C 87 % 1003,4 hPa 0,2 l/m 7,8 km/h SW 1,0 C 1,6 C 4,3 km/h
02.01.2015 14:00 3,1 C 86 % 1003,6 hPa 0,0 l/m 18,1 km/h W-NW 1,0 C -4,8 C 10,1 km/h
02.01.2015 15:00 2,9 C 86 % 1004,8 hPa 0,0 l/m 3,9 km/h W-NW 0,8 C 2,9 C 2,2 km/h
02.01.2015 16:00 2,4 C 87 % 1004,7 hPa 0,0 l/m 0,0 km/h W-SW 0,5 C 2,4 C 0,0 km/h
02.01.2015 17:00 2,9 C 87 % 1005,4 hPa 0,0 l/m 7,6 km/h N-NW 1,0 C 1,8 C 7,6 km/h
02.01.2015 18:00 2,8 C 87 % 1005,8 hPa 0,0 l/m 0,0 km/h NO 0,9 C 2,8 C 0,0 km/h
02.01.2015 19:00 1,9 C 87 % 1006,4 hPa 0,2 l/m 0,0 km/h O-NO -0,0 C 1,9 C 0,0 km/h
02.01.2015 20:00 1,6 C 87 % 1006,8 hPa 0,0 l/m 0,0 km/h O-NO -0,3 C 1,6 C 0,0 km/h
02.01.2015 21:00 1,6 C 87 % 1007,1 hPa 0,2 l/m 0,0 km/h O-SO -0,3 C 1,6 C 0,0 km/h
02.01.2015 22:00 1,3 C 87 % 1007,6 hPa 0,0 l/m 0,0 km/h N-NO -0,6 C 1,3 C 0,0 km/h
02.01.2015 23:00 1,5 C 86 % 1007,3 hPa 0,0 l/m 0,0 km/h N-NO -0,6 C 1,5 C 0,0 km/h
03.01.2015 00:00 1,1 C 86 % 1006,9 hPa 0,0 l/m 0,0 km/h N-NO -1,0 C 1,1 C 0,0 km/h
03.01.2015 01:00 0,2 C 87 % 1006,3 hPa 0,0 l/m 0,0 km/h N-NO -1,7 C 0,2 C 0,0 km/h
03.01.2015 02:00 -0,7 C 86 % 1006,0 hPa 0,0 l/m 0,0 km/h N-NO -2,7 C -0,7 C 0,0 km/h
03.01.2015 03:00 -0,5 C 86 % 1005,7 hPa 0,0 l/m 0,0 km/h N-NO -2,5 C -0,5 C 0,0 km/h
03.01.2015 04:00 0,3 C 85 % 1004,9 hPa 0,0 l/m 0,0 km/h O-SO -1,9 C 0,3 C 0,0 km/h
03.01.2015 05:00 0,6 C 85 % 1003,5 hPa 0,0 l/m 0,7 km/h O-SO -1,6 C 0,6 C 0,7 km/h
03.01.2015 06:00 0,4 C 85 % 1002,7 hPa 0,0 l/m 0,0 km/h NO -1,8 C 0,4 C 0,0 km/h
03.01.2015 07:00 0,8 C 85 % 1002,8 hPa 0,0 l/m 0,0 km/h NO -1,4 C 0,8 C 0,0 km/h
03.01.2015 08:00 0,9 C 84 % 1001,7 hPa 0,0 l/m 0,0 km/h NO -1,5 C 0,9 C 0,0 km/h
03.01.2015 09:00 1,5 C 84 % 1000,9 hPa 0,0 l/m 0,0 km/h N-NO -0,9 C 1,5 C 0,0 km/h
03.01.2015 10:00 2,6 C 82 % 999,9 hPa 0,0 l/m 0,0 km/h SO -0,2 C 2,6 C 0,0 km/h
03.01.2015 11:00 4,1 C 82 % 997,8 hPa 0,0 l/m 9,7 km/h W-SW 1,3 C 1,3 C 5,4 km/h
03.01.2015 12:00 5,5 C 83 % 995,9 hPa 0,2 l/m 9,7 km/h W 2,8 C 2,8 C 9,7 km/h
03.01.2015 13:00 5,3 C 83 % 993,1 hPa 0,4 l/m 0,0 km/h S-SW 2,7 C 5,3 C 0,0 km/h
03.01.2015 14:00 6,7 C 82 % 992,1 hPa 0,2 l/m 28,4 km/h SW 3,8 C -3,6 C 28,4 km/h
03.01.2015 15:00 8,1 C 86 % 991,7 hPa 0,0 l/m 11,9 km/h SW 5,9 C 4,4 C 11,9 km/h
03.01.2015 16:00 8,6 C 84 % 990,8 hPa 0,2 l/m 11,9 km/h W-SW 6,1 C 5,0 C 11,9 km/h
03.01.2015 17:00 9,5 C 87 % 990,4 hPa 0,0 l/m 9,4 km/h S-SW 7,4 C 7,4 C 9,4 km/h
03.01.2015 18:00 10,1 C 87 % 989,8 hPa 0,0 l/m 20,2 km/h S-SW 8,0 C 3,4 C 20,2 km/h
03.01.2015 19:00 10,6 C 86 % 989,8 hPa 0,0 l/m 25,6 km/h W-SW 8,4 C 2,5 C 25,6 km/h
03.01.2015 20:00 10,8 C 86 % 990,1 hPa 0,0 l/m 16,2 km/h W 8,6 C 5,6 C 16,2 km/h
03.01.2015 21:00 10,5 C 85 % 990,8 hPa 0,0 l/m 14,8 km/h SW 8,1 C 5,8 C 14,8 km/h
03.01.2015 22:00 10,1 C 86 % 991,2 hPa 0,0 l/m 12,2 km/h W-SW 7,9 C 6,5 C 12,2 km/h
03.01.2015 23:00 10,2 C 86 % 992,0 hPa 0,0 l/m 11,9 km/h N 8,0 C 6,8 C 11,9 km/h
04.01.2015 00:00 7,5 C 87 % 994,5 hPa 1,5 l/m 0,0 km/h O-SO 5,5 C 7,5 C 0,0 km/h
04.01.2015 01:00 6,4 C 87 % 995,7 hPa 0,2 l/m 0,0 km/h N-NW 4,4 C 6,4 C 0,0 km/h
04.01.2015 02:00 3,9 C 87 % 997,5 hPa 0,0 l/m 0,0 km/h O-SO 1,9 C 3,9 C 0,0 km/h
04.01.2015 03:00 2,4 C 87 % 998,6 hPa 0,0 l/m 0,0 km/h N-NO 0,5 C 2,4 C 0,0 km/h
04.01.2015 04:00 3,6 C 87 % 999,4 hPa 0,0 l/m 0,0 km/h N-NO 1,6 C 3,6 C 0,0 km/h
04.01.2015 05:00 3,8 C 87 % 999,9 hPa 0,0 l/m 0,0 km/h N 1,8 C 3,8 C 0,0 km/h
04.01.2015 06:00 2,8 C 88 % 1000,9 hPa 0,0 l/m 0,0 km/h N 1,0 C 2,8 C 0,0 km/h
04.01.2015 07:00 0,0 C 88 % 1001,9 hPa 0,0 l/m 0,0 km/h N -1,7 C 0,0 C 0,0 km/h
04.01.2015 08:00 0,6 C 87 % 1002,8 hPa 0,0 l/m 0,0 km/h N -1,3 C 0,6 C 0,0 km/h
04.01.2015 09:00 4,8 C 84 % 1003,6 hPa 0,0 l/m 0,0 km/h O-SO 2,3 C 4,8 C 0,0 km/h
04.01.2015 10:00 10,5 C 82 % 1004,0 hPa 0,0 l/m 0,0 km/h W 7,6 C 10,5 C 0,0 km/h
04.01.2015 11:00 12,8 C 68 % 1004,1 hPa 0,0 l/m 0,0 km/h N-NO 7,0 C 12,8 C 0,0 km/h
04.01.2015 12:00 8,1 C 71 % 1004,4 hPa 0,0 l/m 0,0 km/h W-NW 3,2 C 8,1 C 0,0 km/h
04.01.2015 13:00 10,1 C 63 % 1004,5 hPa 0,0 l/m 0,0 km/h NW 3,4 C 10,1 C 0,0 km/h
04.01.2015 14:00 8,9 C 62 % 1005,0 hPa 0,0 l/m 0,0 km/h N-NO 2,0 C 8,9 C 0,0 km/h
04.01.2015 15:00 7,8 C 67 % 1005,9 hPa 0,0 l/m 0,0 km/h N-NO 2,1 C 7,8 C 0,0 km/h
04.01.2015 16:00 4,8 C 73 % 1006,6 hPa 0,0 l/m 0,0 km/h O-SO 0,4 C 4,8 C 0,0 km/h
04.01.2015 17:00 0,9 C 81 % 1006,9 hPa 0,0 l/m 0,0 km/h O-SO -2,0 C 0,9 C 0,0 km/h
04.01.2015 18:00 -0,7 C 85 % 1007,0 hPa 0,0 l/m 0,0 km/h O-NO -2,9 C -0,7 C 0,0 km/h
04.01.2015 19:00 -1,6 C 86 % 1007,4 hPa 0,0 l/m 0,0 km/h O-SO -3,6 C -1,6 C 0,0 km/h
04.01.2015 20:00 -0,7 C 87 % 1008,0 hPa 0,0 l/m 0,0 km/h O-SO -2,6 C -0,7 C 0,0 km/h
04.01.2015 21:00 -0,5 C 87 % 1008,2 hPa 0,0 l/m 0,0 km/h O-NO -2,4 C -0,5 C 0,0 km/h
04.01.2015 22:00 -0,2 C 87 % 1007,9 hPa 0,0 l/m 0,0 km/h O-NO -2,1 C -0,2 C 0,0 km/h
04.01.2015 23:00 -0,8 C 87 % 1007,6 hPa 0,0 l/m 0,0 km/h O-NO -2,7 C -0,8 C 0,0 km/h
Min-Datum _ 29.12.14 04.01.15 03.01.15 - 29.12.14 - 29.12.14 29.12.14 29.12.14
_ Min-Zeit 05:53 14:53 18:53 - 00:53 - 05:53 03:53 00:53
Minimum _ -10,7 C 62 % 989,8 hPa - 0,0 km/h - -12,4 C -11,0 C 0,0 km/h
Max-Datum _ 04.01.15 29.12.14 01.01.15 04.01.15 03.01.15 - 03.01.15 04.01.15 03.01.15
_ Max-Zeit 11:53 09:53 10:53 00:53 14:53 - 20:53 11:53 14:53
Maximum _ 12,8 C 88 % 1008,7 hPa 1,5 l/m 28,4 km/h
SW
- 8,6 C 12,8 C 28,4 km/h
SW
Durchschnitt _ -0,5 C 86 % 1004,3 hPa #3,3 l/m 1,4 km/h O -2,6 C -0,9 C 1,3 km/h
www.sexauwetter.de